EGPB/LSI METAR and TAF weather

Enter ICAO airport designator
Station Type Date Time Source
EGPB METAR 2019/08/22 15:20 UTC NOAA

EGPB 221520Z 17009KT 9999 -RA NSC 13/11 Q1007


Station Type Date Time Source
EGPB Decoded METAR 2019/08/22 15:20 UTC NOAA

Station name not available
Aug 22, 2019 - 11:20 AM EDT / 2019.08.22 1520 UTC
Wind: from the S (170 degrees) at 10 MPH (9 KT):0
Visibility: greater than 7 mile(s):0
Weather: light rain
Temperature: 55 F (13 C)
Dew Point: 51 F (11 C)
Relative Humidity: 87%
Pressure (altimeter): 29.74 in. Hg (1007 hPa)
ob: EGPB 221520Z 17009KT 9999 -RA NSC 13/11 Q1007
cycle: 15

Station Type Date Time Source
EGPB TAF UTC NOAA

Error!

Example: see airport list